Flight Track Log - Related Links

Times and Time Zones

All times are in EDT time to prevent confusion due to time zone crossing. See the EJA396 flight status page for this flight to view local times or setup timezone preferences in your user account.

Time Position Orientation Groundspeed Altitude Reporting Facility
EDT Latitude Longitude Course Direction KTS MPH feet Rate Location/Type
Fri 05:33:26 PM 33.5683 -86.7489 350° North 165 190 1,300  Level Atlanta Center
Fri 05:34:20 PM 33.6222 -86.7606 350° North 241 277 4,800 4,174 Climbing Atlanta Center
Fri 05:35:21 PM 33.6494 -86.8461 291° West 285 328 9,300 3,000 Climbing Atlanta Center
Fri 05:36:06 PM 33.6500 -86.9136 271° West 281 323 10,100 2,286 Climbing Atlanta Center
Fri 05:37:06 PM 33.6392 -87.0181 263° West 297 342 13,300 3,400 Climbing Atlanta Center
Fri 05:38:06 PM 33.6281 -87.1300 263° West 326 375 16,900 3,450 Climbing Atlanta Center
Fri 05:39:06 PM 33.5964 -87.2311 249° West 334 384 20,200 3,228 Climbing Atlanta Center
Fri 05:40:44 PM 33.5300 -87.3917 244° Southwest 321 369 25,400 2,203 Climbing Memphis Center
Fri 05:41:44 PM 33.4844 -87.5003 243° Southwest 332 382 26,000 300 Climbing Memphis Center
Fri 05:42:44 PM 33.4331 -87.6242 244° Southwest 380 437 26,000  Level Memphis Center
Fri 05:43:44 PM 33.3814 -87.7525 244° Southwest 419 482 26,000 1,250 Level Memphis Center
Fri 05:44:44 PM 33.3275 -87.8758 242° Southwest 426 490 28,500 2,750 Climbing Memphis Center
Fri 05:45:44 PM 33.2797 -87.9892 243° Southwest 411 473 31,500 2,750 Climbing Memphis Center
Fri 05:46:44 PM 33.2339 -88.0997 244° Southwest 398 458 34,000 1,300 Climbing Memphis Center
Fri 05:47:44 PM 33.1958 -88.1925 244° Southwest 389 448 34,100 1,500 Climbing Memphis Center
Fri 05:48:44 PM 33.1436 -88.3228 244° Southwest 389 448 37,000 2,450 Climbing Memphis Center
Fri 05:49:44 PM 33.0994 -88.4206 242° Southwest 372 428 39,000 1,500 Climbing Memphis Center
Fri 05:50:44 PM 33.0592 -88.5206 244° Southwest 352 405 40,000 500 Climbing Memphis Center
Fri 05:51:44 PM 33.0167 -88.6156 242° Southwest 334 384 40,000  Level Memphis Center
Fri 05:52:44 PM 32.9742 -88.7181 244° Southwest 334 384 40,000  Level Memphis Center
Fri 05:53:44 PM 32.9275 -88.8228 242° Southwest 346 398 40,000  Level Memphis Center
Fri 05:54:44 PM 32.8789 -88.9375 243° Southwest 372 428 40,000  Level Memphis Center
Fri 05:55:44 PM 32.8217 -89.0694 243° Southwest 402 463 40,000  Level Memphis Center
Fri 05:56:44 PM 32.7708 -89.1861 243° Southwest 402 463 40,000  Level Memphis Center
Fri 05:57:44 PM 32.7175 -89.3006 241° Southwest 402 463 40,000  Level Memphis Center
Fri 05:58:44 PM 32.6661 -89.4169 242° Southwest 402 463 40,000  Level Memphis Center
Fri 05:59:44 PM 32.6150 -89.5358 243° Southwest 402 463 40,000  Level Memphis Center
Fri 06:00:44 PM 32.5633 -89.6522 242° Southwest 402 463 40,000  Level Memphis Center
Fri 06:01:44 PM 32.5181 -89.7536 242° Southwest 402 463 40,000  Level Memphis Center
Fri 06:02:44 PM 32.4664 -89.8722 243° Southwest 402 463 40,000  Level Memphis Center
Fri 06:03:44 PM 32.4147 -89.9881 242° Southwest 402 463 40,000  Level Memphis Center
Fri 06:04:44 PM 32.3564 -90.1189 242° Southwest 407 468 40,000 150 Level Memphis Center
Fri 06:05:44 PM 32.3044 -90.2344 242° Southwest 407 468 40,300 500 Climbing Memphis Center
Fri 06:06:44 PM 32.2522 -90.3500 242° Southwest 407 468 41,000 350 Climbing Memphis Center
Fri 06:07:44 PM 32.2000 -90.4653 242° Southwest 407 468 41,000  Level Memphis Center
Fri 06:08:44 PM 32.1478 -90.5831 242° Southwest 407 468 41,000  Level Memphis Center
Fri 06:09:39 PM 32.1064 -90.6767 242° Southwest 405 466 41,000  Level Houston Center
Fri 06:10:41 PM 32.0483 -90.8022 241° Southwest 403 464 41,000  Level Houston Center
Fri 06:11:43 PM 31.9953 -90.9192 242° Southwest 404 465 41,000  Level Houston Center
Fri 06:12:45 PM 31.9425 -91.0347 242° Southwest 403 464 41,000  Level Houston Center
Fri 06:13:47 PM 31.8883 -91.1522 242° Southwest 408 470 41,000  Level Houston Center
Fri 06:14:49 PM 31.8339 -91.2683 241° Southwest 406 467 41,000  Level Houston Center
Fri 06:15:51 PM 31.7714 -91.4086 242° Southwest 406 467 41,000  Level Houston Center
Fri 06:16:53 PM 31.7167 -91.5236 241° Southwest 404 465 41,000  Level Houston Center
Fri 06:17:55 PM 31.6631 -91.6389 241° Southwest 403 464 41,000  Level Houston Center
Fri 06:18:58 PM 31.6108 -91.7544 242° Southwest 403 464 41,000  Level Houston Center
Fri 06:20:00 PM 31.5653 -91.8739 246° West 401 461 41,000  Level Houston Center
Fri 06:21:02 PM 31.5181 -91.9922 245° Southwest 403 464 41,000  Level Houston Center
Fri 06:22:04 PM 31.4664 -92.1250 246° West 389 448 41,000  Level Houston Center
Fri 06:23:06 PM 31.4219 -92.2364 245° Southwest 380 437 41,000  Level Houston Center
Fri 06:24:08 PM 31.3778 -92.3492 245° Southwest 383 441 41,000  Level Houston Center
Fri 06:25:10 PM 31.3306 -92.4664 245° Southwest 399 459 41,000  Level Houston Center
Fri 06:26:12 PM 31.2742 -92.6089 245° Southwest 403 464 41,000  Level Houston Center
Fri 06:27:14 PM 31.2269 -92.7306 246° West 410 472 41,000  Level Houston Center
Fri 06:28:16 PM 31.1783 -92.8519 245° Southwest 415 478 41,000  Level Houston Center
Fri 06:29:19 PM 31.1294 -92.9719 245° Southwest 413 475 41,000  Level Houston Center
Fri 06:30:21 PM 31.0808 -93.0936 245° Southwest 415 478 41,000 -48 Level Houston Center
Fri 06:31:23 PM 31.0231 -93.2406 245° Southwest 417 480 40,900 -871 Descending Houston Center
Fri 06:32:25 PM 30.9725 -93.3647 245° Southwest 423 487 39,200 -1,790 Descending Houston Center
Fri 06:33:27 PM 30.9203 -93.4928 245° Southwest 436 502 37,200 -1,839 Descending Houston Center
Fri 06:34:29 PM 30.8664 -93.6250 245° Southwest 449 517 35,400 -1,742 Descending Houston Center
Fri 06:35:31 PM 30.8111 -93.7586 244° Southwest 461 531 33,600 -1,887 Descending Houston Center
Fri 06:36:33 PM 30.7433 -93.9225 244° Southwest 472 543 31,500 -1,887 Descending Houston Center
Fri 06:37:35 PM 30.6869 -94.0592 244° Southwest 473 544 29,700 -1,742 Descending Houston Center
Fri 06:38:37 PM 30.6306 -94.1964 245° Southwest 474 545 27,900 -2,400 Descending Houston Center
Fri 06:39:40 PM 30.5742 -94.3289 244° Southwest 466 536 24,700 -2,976 Descending Houston Center
Fri 06:40:42 PM 30.5214 -94.4547 244° Southwest 447 514 21,700 -2,855 Descending Houston Center
Fri 06:41:44 PM 30.4578 -94.5753 239° Southwest 405 466 18,800 -2,710 Descending Houston Center
Fri 06:42:46 PM 30.3944 -94.6742 233° Southwest 395 455 16,100 -2,516 Descending Houston Center
Fri 06:43:48 PM 30.3342 -94.7681 233° Southwest 370 426 13,600 -1,935 Descending Houston Center
Fri 06:44:50 PM 30.2689 -94.8689 233° Southwest 329 379 12,100 -1,500 Descending Houston Center
Fri 06:46:00 PM 30.2019 -94.9686 232° Southwest 329 379 10,300 -1,016 Descending Houston Center
Fri 06:46:54 PM 30.1600 -95.0358 234° Southwest 324 373 10,000 -155 Descending Houston Center
Fri 06:47:56 PM 30.0978 -95.1025 223° Southwest 315 362 10,000  Level Houston Center
Fri 06:48:58 PM 30.0108 -95.1367 199° South 327 376 10,000  Level Houston Center
Fri 06:50:00 PM 29.9103 -95.1761 199° South 321 369 10,000 -823 Level Houston Center
Fri 06:51:02 PM 29.8375 -95.2050 199° South 284 327 8,300 -1,694 Descending Houston Center
Fri 06:52:04 PM 29.7644 -95.2347 199° South 280 322 6,500 -1,113 Descending Houston Center
Fri 06:53:06 PM 29.7003 -95.2600 199° South 251 289 6,000 -234 Descending Houston Center
Fri 06:54:12 PM 29.6300 -95.2994 206° Southwest 231 266 6,000  Level Houston Center
Fri 06:55:10 PM 29.6106 -95.3656 251° West 238 274 6,000  Level Houston Center
Fri 06:56:08 PM 29.6064 -95.4319 266° West 231 266 6,000 -151 Level Houston Center
Fri 06:57:09 PM 29.6458 -95.4947 306° West 232 267 5,700 -878 Descending Houston Center
Fri 06:58:11 PM 29.7031 -95.4997 356° North 255 293 4,200 -1,415 Descending Houston Center
Fri 06:59:12 PM 29.7525 -95.4433 45° Northeast 228 262 2,800 -1,031 Descending Houston Center
Fri 07:00:19 PM 29.7392 -95.3897 106° East 180 207 2,000 -558 Descending Houston Center
Fri 07:01:21 PM 29.7042 -95.3506 136° Southeast 173 199 1,600 -585 Descending Houston Center
Fri 07:02:22 PM 29.6733 -95.3133 134° Southeast 154 177 800 -672 Descending Houston Center
Fri 07:03:26 PM 29.6511 -95.2856 133° Southeast 138 159 200 -563 Descending Houston Center

Login

Don't have an account? Register now (free) for customized features, flight alerts, and more!